createdAt,value
2023-04-02T00:02:30.873Z,2.13
2023-04-02T00:05:54.912Z,1.80
2023-04-02T00:09:03.037Z,2.08
2023-04-02T00:12:18.881Z,1.00
2023-04-02T00:15:21.439Z,1.98
2023-04-02T00:18:25.015Z,1.73
2023-04-02T00:21:32.212Z,1.98
2023-04-02T00:24:35.267Z,1.90
2023-04-02T00:27:37.925Z,1.90
2023-04-02T00:30:47.853Z,1.13
2023-04-02T00:36:54.986Z,1.98
2023-04-02T00:40:01.841Z,2.38
2023-04-02T00:43:07.299Z,2.88
2023-04-02T00:46:15.551Z,1.60
2023-04-02T00:49:23.646Z,2.03
2023-04-02T00:52:30.871Z,1.70
2023-04-02T00:55:37.287Z,1.42
2023-04-02T00:58:41.555Z,1.85
2023-04-02T01:01:44.303Z,1.90
2023-04-02T01:04:56.396Z,1.73
2023-04-02T01:08:08.794Z,0.90
2023-04-02T01:11:25.760Z,2.40
2023-04-02T01:14:40.939Z,1.17
2023-04-02T01:18:02.558Z,2.33
2023-04-02T01:21:21.786Z,2.65
2023-04-02T01:24:32.610Z,1.48
2023-04-02T01:27:41.676Z,1.15
2023-04-02T01:30:46.655Z,2.10
2023-04-02T01:33:49.254Z,2.00
2023-04-02T01:37:07.344Z,2.40
2023-04-02T01:40:23.535Z,2.03
2023-04-02T01:43:33.890Z,2.10
2023-04-02T01:46:40.964Z,1.45
2023-04-02T01:49:44.854Z,1.98
2023-04-02T01:52:49.626Z,2.50
2023-04-02T01:55:55.267Z,2.47
2023-04-02T01:58:59.368Z,1.40
2023-04-02T02:02:05.462Z,1.65
2023-04-02T02:05:14.891Z,1.95
2023-04-02T02:08:30.077Z,1.90
2023-04-02T02:11:36.320Z,1.65
2023-04-02T02:14:38.835Z,1.73
2023-04-02T02:17:42.964Z,2.13
2023-04-02T02:20:45.888Z,1.10
2023-04-02T02:23:48.441Z,1.48
2023-04-02T02:27:05.314Z,1.50
2023-04-02T02:30:15.496Z,1.40
2023-04-02T02:33:25.498Z,1.73
2023-04-02T02:36:33.563Z,1.98
2023-04-02T02:39:40.444Z,1.50
2023-04-02T02:42:48.599Z,1.75
2023-04-02T02:45:53.864Z,1.40
2023-04-02T02:48:59.760Z,2.53
2023-04-02T02:52:14.030Z,1.77
2023-04-02T02:55:19.248Z,1.42
2023-04-02T02:58:27.477Z,1.65
2023-04-02T03:01:30.625Z,1.67
2023-04-02T03:04:35.908Z,2.05
2023-04-02T03:07:39.071Z,1.60
2023-04-02T03:10:48.145Z,1.88
2023-04-02T03:13:54.614Z,2.17
2023-04-02T03:17:04.517Z,2.05
2023-04-02T03:26:30.345Z,1.98
2023-04-02T03:29:36.635Z,1.75
2023-04-02T03:32:41.155Z,1.92
2023-04-02T03:35:50.911Z,2.22
2023-04-02T03:38:58.179Z,1.75
2023-04-02T03:42:08.578Z,1.83
2023-04-02T03:45:16.181Z,1.65
2023-04-02T03:48:25.074Z,1.73
2023-04-02T03:51:34.909Z,1.13
2023-04-02T03:54:38.303Z,1.13
2023-04-02T03:57:47.434Z,2.13
2023-04-02T04:00:55.708Z,2.75
2023-04-02T04:04:06.826Z,1.15
2023-04-02T04:07:17.333Z,1.90
2023-04-02T04:10:24.312Z,1.60
2023-04-02T04:13:37.443Z,2.53
2023-04-02T04:16:44.667Z,1.58
2023-04-02T04:19:55.451Z,1.52
2023-04-02T04:23:10.686Z,1.73
2023-04-02T04:26:21.353Z,1.95
2023-04-02T04:29:38.104Z,2.28
2023-04-02T04:32:50.191Z,1.38
2023-04-02T04:35:56.717Z,1.00
2023-04-02T04:39:07.429Z,1.20
2023-04-02T04:42:19.097Z,2.03
2023-04-02T04:45:35.176Z,1.50
2023-04-02T04:48:42.738Z,1.70
2023-04-02T04:51:52.121Z,1.52
2023-04-02T04:54:56.512Z,1.63
2023-04-02T04:58:04.437Z,1.92
2023-04-02T05:01:13.181Z,1.63
2023-04-02T05:04:21.962Z,1.73
2023-04-02T05:07:30.342Z,2.00
2023-04-02T05:10:41.999Z,1.63
2023-04-02T05:13:51.161Z,1.75
2023-04-02T05:17:01.505Z,1.27
2023-04-02T05:20:09.848Z,1.70
2023-04-02T05:23:19.268Z,2.00
2023-04-02T05:26:30.573Z,1.20
2023-04-02T05:29:38.603Z,1.90
2023-04-02T05:32:47.142Z,2.13
2023-04-02T05:35:55.266Z,2.13
2023-04-02T05:39:00.672Z,1.77
2023-04-02T05:42:07.423Z,1.73
2023-04-02T05:45:21.823Z,1.58
2023-04-02T05:48:30.873Z,2.22
2023-04-02T05:51:41.715Z,2.03
2023-04-02T05:54:49.664Z,1.38
2023-04-02T05:58:21.275Z,1.45
2023-04-02T06:01:33.470Z,1.42
2023-04-02T06:04:43.692Z,1.67
2023-04-02T06:07:49.429Z,1.48
2023-04-02T06:10:57.181Z,2.85
2023-04-02T06:14:01.220Z,2.55
2023-04-02T06:17:05.844Z,3.08
2023-04-02T06:20:14.540Z,1.75
2023-04-02T06:23:20.729Z,2.75
2023-04-02T06:26:27.782Z,1.70
2023-04-02T06:29:39.483Z,1.50
2023-04-02T06:32:41.945Z,1.90
2023-04-02T06:35:46.697Z,2.33
2023-04-02T06:38:51.819Z,1.92
2023-04-02T06:42:01.034Z,2.55
2023-04-02T06:45:06.076Z,2.15
2023-04-02T06:48:16.471Z,2.15
2023-04-02T06:51:22.144Z,2.15
2023-04-02T06:54:24.847Z,1.83
2023-04-02T06:57:27.290Z,1.52
2023-04-02T07:00:36.892Z,2.92
2023-04-02T07:03:41.842Z,1.75
2023-04-02T07:06:44.288Z,1.75
2023-04-02T07:09:46.862Z,2.13
2023-04-02T07:12:49.575Z,1.98
2023-04-02T07:15:55.318Z,2.38
2023-04-02T07:18:59.774Z,1.55
2023-04-02T07:22:02.167Z,2.95
2023-04-02T07:25:05.046Z,2.10
2023-04-02T07:28:07.548Z,2.28
2023-04-02T07:31:17.369Z,2.50
2023-04-02T07:34:19.907Z,1.63
2023-04-02T07:37:22.463Z,1.73
2023-04-02T07:40:24.943Z,1.27
2023-04-02T07:43:27.480Z,2.20
2023-04-02T07:46:31.428Z,1.63
2023-04-02T07:49:34.143Z,1.88
2023-04-02T07:52:40.612Z,1.75
2023-04-02T07:55:43.173Z,1.75
2023-04-02T07:58:46.498Z,2.35
2023-04-02T08:01:50.605Z,1.17
2023-04-02T08:04:53.370Z,2.42
2023-04-02T08:07:57.324Z,1.98
2023-04-02T08:10:59.896Z,3.78
2023-04-02T08:14:02.438Z,2.63
2023-04-02T08:17:06.552Z,2.17
2023-04-02T08:20:15.378Z,3.50
2023-04-02T08:23:18.203Z,1.58
2023-04-02T08:26:20.983Z,2.65
2023-04-02T08:29:24.037Z,5.13
2023-04-02T08:32:29.153Z,4.13
2023-04-02T08:35:32.395Z,3.40
2023-04-02T08:38:35.006Z,5.25
2023-04-02T08:41:43.038Z,7.28
2023-04-02T08:44:56.441Z,5.47
2023-04-02T08:48:03.385Z,5.50
2023-04-02T08:51:07.440Z,4.68
2023-04-02T08:54:18.750Z,2.45
2023-04-02T08:57:31.166Z,4.68
2023-04-02T09:00:39.095Z,4.18
2023-04-02T09:03:46.753Z,3.67
2023-04-02T09:06:52.658Z,3.25
2023-04-02T09:09:55.187Z,3.00
2023-04-02T09:12:58.624Z,4.07
2023-04-02T09:16:07.954Z,6.70
2023-04-02T09:19:17.997Z,4.43
2023-04-02T09:22:22.692Z,3.85
2023-04-02T09:25:28.249Z,4.10
2023-04-02T09:28:30.940Z,3.60
2023-04-02T09:31:39.993Z,4.47
2023-04-02T09:34:44.012Z,6.18
2023-04-02T09:37:47.714Z,4.63
2023-04-02T09:40:52.472Z,3.55
2023-04-02T09:44:15.462Z,5.82
2023-04-02T09:47:27.115Z,4.43
2023-04-02T09:50:34.181Z,3.63
2023-04-02T09:53:41.130Z,3.00
2023-04-02T09:57:01.586Z,2.80
2023-04-02T10:00:25.216Z,4.07
2023-04-02T10:06:38.289Z,3.42
2023-04-02T10:09:41.073Z,2.72
2023-04-02T10:12:47.651Z,4.88
2023-04-02T10:15:54.337Z,3.97
2023-04-02T10:18:59.696Z,6.45
2023-04-02T10:22:08.047Z,2.72
2023-04-02T10:25:15.767Z,3.72
2023-04-02T10:28:45.363Z,3.42
2023-04-02T10:31:57.513Z,3.75
2023-04-02T10:35:02.893Z,3.50
2023-04-02T10:38:28.722Z,3.97
2023-04-02T10:41:37.993Z,3.97
2023-04-02T10:44:50.794Z,3.45
2023-04-02T10:47:59.941Z,3.95
2023-04-02T10:51:23.727Z,3.83
2023-04-02T10:55:35.311Z,4.95
2023-04-02T11:03:40.985Z,3.65
2023-04-02T11:06:58.096Z,3.92
2023-04-02T11:10:47.434Z,2.97
2023-04-02T11:14:46.353Z,3.65
2023-04-02T11:29:03.146Z,4.75
2023-04-02T11:32:55.645Z,3.60
2023-04-02T11:36:17.240Z,4.95
2023-04-02T11:39:53.825Z,3.80
2023-04-02T11:42:56.504Z,5.53
2023-04-02T11:46:01.870Z,5.70
2023-04-02T11:49:39.617Z,4.47
2023-04-02T11:52:53.827Z,4.53
2023-04-02T11:56:19.206Z,4.35
2023-04-02T11:59:27.948Z,3.90
2023-04-02T12:02:41.310Z,3.65
2023-04-02T12:05:54.686Z,4.22
2023-04-02T12:09:07.977Z,6.80
2023-04-02T12:12:18.931Z,5.22
2023-04-02T12:15:44.072Z,4.88
2023-04-02T12:18:54.037Z,4.32
2023-04-02T12:21:57.810Z,4.57
2023-04-02T12:25:06.355Z,5.38
2023-04-02T12:28:22.371Z,6.38
2023-04-02T12:31:26.172Z,4.53
2023-04-02T12:34:31.388Z,6.32
2023-04-02T12:37:33.981Z,5.97
2023-04-02T12:40:36.664Z,6.97
2023-04-02T12:43:40.156Z,4.05
2023-04-02T12:51:07.865Z,5.55
2023-04-02T12:58:27.870Z,5.18
2023-04-02T13:01:33.912Z,5.25
2023-04-02T13:04:47.920Z,4.63
2023-04-02T13:07:55.873Z,4.18
2023-04-02T13:11:01.103Z,5.40
2023-04-02T13:14:05.945Z,5.13
2023-04-02T13:17:40.001Z,6.75
2023-04-02T13:20:43.622Z,7.72
2023-04-02T13:26:51.601Z,4.78
2023-04-02T13:29:54.263Z,4.85
2023-04-02T13:32:57.280Z,4.15
2023-04-02T13:35:59.845Z,5.20
2023-04-02T13:39:03.835Z,7.40
2023-04-02T13:42:08.889Z,6.05
2023-04-02T13:45:22.960Z,4.32
2023-04-02T13:48:28.886Z,5.28
2023-04-02T13:51:37.429Z,5.80
2023-04-02T13:54:46.820Z,4.50
2023-04-02T13:57:52.037Z,5.60
2023-04-02T14:00:54.729Z,4.85
2023-04-02T14:03:58.106Z,5.85
2023-04-02T14:07:33.394Z,4.20
2023-04-02T14:10:59.536Z,5.28
2023-04-02T14:14:20.060Z,5.40
2023-04-02T14:17:36.047Z,6.85
2023-04-02T14:20:49.170Z,5.82
2023-04-02T14:24:07.584Z,4.63
2023-04-02T14:27:24.098Z,4.95
2023-04-02T14:30:37.443Z,5.80
2023-04-02T14:33:47.917Z,3.92
2023-04-02T14:37:00.427Z,5.03
2023-04-02T14:40:14.232Z,5.50
2023-04-02T14:43:23.454Z,5.63
2023-04-02T14:46:27.555Z,6.05
2023-04-02T14:49:36.071Z,5.65
2023-04-02T14:52:40.408Z,5.80
2023-04-02T14:55:47.215Z,6.15
2023-04-02T14:58:56.179Z,6.45
2023-04-02T15:02:03.544Z,5.95
2023-04-02T15:05:16.403Z,5.82
2023-04-02T15:08:23.718Z,6.28
2023-04-02T15:11:30.844Z,6.78
2023-04-02T15:14:38.532Z,5.32
2023-04-02T15:17:41.306Z,6.82
2023-04-02T15:20:53.760Z,6.72
2023-04-02T15:24:03.421Z,7.90
2023-04-02T15:27:25.193Z,5.78
2023-04-02T15:33:45.884Z,6.65
2023-04-02T15:37:01.757Z,6.57
2023-04-02T15:40:18.696Z,6.85
2023-04-02T15:43:39.242Z,9.20
2023-04-02T15:46:55.451Z,7.20
2023-04-02T15:53:17.349Z,7.05
2023-04-02T15:56:26.599Z,5.93
2023-04-02T15:59:59.184Z,7.25
2023-04-02T16:03:34.646Z,6.68
2023-04-02T16:06:48.411Z,5.20
2023-04-02T16:10:00.607Z,7.03
2023-04-02T16:13:12.672Z,7.00
2023-04-02T16:16:18.821Z,7.03
2023-04-02T16:19:30.265Z,6.38
2023-04-02T16:22:35.112Z,7.00
2023-04-02T16:25:45.504Z,6.57
2023-04-02T16:28:59.750Z,5.57
2023-04-02T16:32:12.745Z,4.68
2023-04-02T16:38:44.812Z,6.45
2023-04-02T16:41:57.746Z,7.18
2023-04-02T16:45:11.536Z,5.70
2023-04-02T16:48:23.590Z,4.88
2023-04-02T16:51:36.265Z,6.65
2023-04-02T16:54:46.388Z,5.95
2023-04-02T16:57:55.485Z,5.75
2023-04-02T17:01:08.546Z,5.28
2023-04-02T17:04:29.123Z,5.80
2023-04-02T17:07:43.870Z,6.60
2023-04-02T17:10:52.762Z,5.18
2023-04-02T17:14:06.173Z,6.13
2023-04-02T17:17:11.606Z,5.97
2023-04-02T17:20:19.854Z,4.50
2023-04-02T17:23:26.147Z,4.53
2023-04-02T17:26:32.137Z,5.93
2023-04-02T17:29:39.071Z,4.70
2023-04-02T17:32:42.012Z,5.60
2023-04-02T17:35:56.887Z,5.93
2023-04-02T17:39:10.857Z,5.57
2023-04-02T17:42:25.849Z,6.43
2023-04-02T17:45:34.504Z,4.72
2023-04-02T17:48:43.903Z,5.68
2023-04-02T17:51:52.991Z,6.72
2023-04-02T17:55:10.772Z,5.13
2023-04-02T17:58:27.568Z,4.47
2023-04-02T18:01:36.060Z,5.03
2023-04-02T18:04:47.702Z,6.38
2023-04-02T18:07:59.177Z,5.60
2023-04-02T18:11:10.771Z,4.05
2023-04-02T18:14:34.243Z,5.35
2023-04-02T18:17:47.325Z,5.90
2023-04-02T18:20:59.260Z,5.90
2023-04-02T18:24:21.224Z,5.20
2023-04-02T18:27:47.392Z,5.57
2023-04-02T18:30:58.647Z,5.70
2023-04-02T18:34:17.706Z,5.13
2023-04-02T18:37:29.570Z,4.65
2023-04-02T18:40:43.341Z,4.78
2023-04-02T18:44:02.341Z,4.18
2023-04-02T18:47:17.236Z,5.22
2023-04-02T18:50:29.212Z,5.13
2023-04-02T18:53:33.683Z,4.25
2023-04-02T18:56:38.744Z,5.72
2023-04-02T18:59:47.941Z,4.05
2023-04-02T19:02:54.435Z,3.72
2023-04-02T19:06:02.154Z,5.35
2023-04-02T19:09:12.891Z,5.68
2023-04-02T19:12:18.450Z,5.20
2023-04-02T19:15:23.546Z,4.70
2023-04-02T19:18:37.423Z,3.78
2023-04-02T19:21:49.769Z,5.40
2023-04-02T19:25:17.951Z,4.18
2023-04-02T19:28:29.208Z,4.38
2023-04-02T19:31:50.204Z,3.70
2023-04-02T19:35:02.152Z,4.18
2023-04-02T19:38:14.799Z,5.53
2023-04-02T19:41:30.409Z,4.22
2023-04-02T19:44:32.887Z,3.17
2023-04-02T19:47:37.125Z,3.97
2023-04-02T19:50:39.904Z,5.45
2023-04-02T19:53:42.615Z,3.67
2023-04-02T19:56:45.621Z,4.00
2023-04-02T19:59:48.238Z,5.50
2023-04-02T20:02:52.135Z,3.67
2023-04-02T20:05:56.793Z,4.07
2023-04-02T20:09:00.136Z,4.97
2023-04-02T20:12:02.619Z,4.68
2023-04-02T20:15:06.591Z,3.28
2023-04-02T20:18:11.118Z,5.20
2023-04-02T20:21:14.115Z,4.70
2023-04-02T20:24:16.629Z,5.05
2023-04-02T20:27:19.856Z,3.63
2023-04-02T20:30:22.416Z,3.83
2023-04-02T20:33:27.636Z,2.65
2023-04-02T20:36:30.166Z,4.78
2023-04-02T20:39:32.743Z,4.18
2023-04-02T20:42:35.349Z,3.78
2023-04-02T20:45:38.759Z,3.53
2023-04-02T20:48:43.364Z,4.22
2023-04-02T20:51:47.306Z,4.00
2023-04-02T20:54:51.903Z,5.15
2023-04-02T20:57:54.833Z,4.82
2023-04-02T21:01:07.442Z,5.07
2023-04-02T21:04:11.251Z,4.68
2023-04-02T21:07:13.682Z,4.82
2023-04-02T21:10:16.492Z,4.60
2023-04-02T21:13:18.956Z,3.88
2023-04-02T21:16:23.760Z,4.35
2023-04-02T21:19:28.036Z,4.63
2023-04-02T21:22:30.778Z,3.88
2023-04-02T21:25:33.231Z,4.15
2023-04-02T21:28:35.980Z,4.00
2023-04-02T21:31:40.117Z,4.13
2023-04-02T21:34:44.068Z,5.68
2023-04-02T21:37:46.580Z,4.07
2023-04-02T21:40:49.093Z,3.95
2023-04-02T21:43:51.882Z,3.53
2023-04-02T21:46:54.443Z,3.65
2023-04-02T21:49:58.273Z,4.50
2023-04-02T21:53:00.846Z,2.33
2023-04-02T21:56:04.568Z,4.28
2023-04-02T21:59:08.714Z,3.13
2023-04-02T22:02:11.914Z,3.65
2023-04-02T22:05:16.169Z,4.90
2023-04-02T22:08:18.649Z,4.53
2023-04-02T22:11:23.788Z,3.25
2023-04-02T22:14:27.513Z,3.63
2023-04-02T22:17:30.460Z,4.50
2023-04-02T22:20:34.789Z,4.88
2023-04-02T22:23:37.833Z,4.00
2023-04-02T22:26:41.141Z,3.95
2023-04-02T22:29:43.808Z,3.70
2023-04-02T22:32:46.584Z,3.65
2023-04-02T22:35:53.514Z,4.90
2023-04-02T22:38:57.083Z,4.25
2023-04-02T22:41:59.530Z,4.38
2023-04-02T22:45:05.051Z,5.97
2023-04-02T22:48:07.987Z,3.75
2023-04-02T22:51:13.891Z,3.60
2023-04-02T22:54:16.763Z,3.90
2023-04-02T22:57:19.362Z,2.83
2023-04-02T23:00:21.901Z,4.20
2023-04-02T23:03:24.345Z,3.33
2023-04-02T23:06:29.072Z,4.90
2023-04-02T23:09:31.626Z,3.90
2023-04-02T23:12:34.338Z,2.80
2023-04-02T23:15:37.072Z,4.30
2023-04-02T23:18:40.730Z,4.75
2023-04-02T23:21:44.545Z,4.60
2023-04-02T23:24:47.087Z,3.45
2023-04-02T23:27:50.083Z,4.75
2023-04-02T23:30:53.608Z,3.45
2023-04-02T23:37:00.086Z,3.13
2023-04-02T23:40:02.648Z,3.03
2023-04-02T23:43:05.517Z,4.15
2023-04-02T23:46:08.027Z,4.45
2023-04-02T23:49:12.122Z,2.85
2023-04-02T23:52:16.670Z,3.88
2023-04-02T23:55:19.133Z,4.57
2023-04-02T23:58:21.730Z,3.72
